sensor_id;sensor_type;location;lat;lon;timestamp;P1;durP1;ratioP1;P2;durP2;ratioP2
68479;SDS011;55469;48.934;12.050;2023-04-06T00:01:40;3.22;;;2.75;;
68479;SDS011;55469;48.934;12.050;2023-04-06T00:04:06;3.80;;;2.65;;
68479;SDS011;55469;48.934;12.050;2023-04-06T00:06:32;3.25;;;2.63;;
68479;SDS011;55469;48.934;12.050;2023-04-06T00:08:58;4.03;;;2.50;;
68479;SDS011;55469;48.934;12.050;2023-04-06T00:11:25;3.78;;;2.63;;
68479;SDS011;55469;48.934;12.050;2023-04-06T00:13:52;3.80;;;2.88;;
68479;SDS011;55469;48.934;12.050;2023-04-06T00:16:18;3.90;;;2.88;;
68479;SDS011;55469;48.934;12.050;2023-04-06T00:18:44;3.90;;;2.70;;
68479;SDS011;55469;48.934;12.050;2023-04-06T00:21:11;4.65;;;3.08;;
68479;SDS011;55469;48.934;12.050;2023-04-06T00:23:41;4.00;;;2.72;;
68479;SDS011;55469;48.934;12.050;2023-04-06T00:26:07;3.78;;;2.80;;
68479;SDS011;55469;48.934;12.050;2023-04-06T00:28:33;4.18;;;2.63;;
68479;SDS011;55469;48.934;12.050;2023-04-06T00:30:59;4.40;;;3.38;;
68479;SDS011;55469;48.934;12.050;2023-04-06T00:33:25;4.15;;;2.90;;
68479;SDS011;55469;48.934;12.050;2023-04-06T00:35:51;5.38;;;3.00;;
68479;SDS011;55469;48.934;12.050;2023-04-06T00:38:16;4.65;;;2.63;;
68479;SDS011;55469;48.934;12.050;2023-04-06T00:40:43;4.40;;;2.80;;
68479;SDS011;55469;48.934;12.050;2023-04-06T00:43:09;4.13;;;2.88;;
68479;SDS011;55469;48.934;12.050;2023-04-06T00:45:37;4.72;;;3.28;;
68479;SDS011;55469;48.934;12.050;2023-04-06T00:48:06;3.30;;;2.67;;
68479;SDS011;55469;48.934;12.050;2023-04-06T00:50:33;3.67;;;3.03;;
68479;SDS011;55469;48.934;12.050;2023-04-06T00:52:59;3.85;;;2.95;;
68479;SDS011;55469;48.934;12.050;2023-04-06T00:55:26;4.13;;;2.88;;
68479;SDS011;55469;48.934;12.050;2023-04-06T00:57:53;3.67;;;2.55;;
68479;SDS011;55469;48.934;12.050;2023-04-06T01:00:19;3.45;;;2.80;;
68479;SDS011;55469;48.934;12.050;2023-04-06T01:02:45;3.22;;;2.88;;
68479;SDS011;55469;48.934;12.050;2023-04-06T01:05:12;4.03;;;3.00;;
68479;SDS011;55469;48.934;12.050;2023-04-06T01:07:38;3.88;;;2.95;;
68479;SDS011;55469;48.934;12.050;2023-04-06T01:10:04;3.80;;;2.47;;
68479;SDS011;55469;48.934;12.050;2023-04-06T01:12:30;3.17;;;2.65;;
68479;SDS011;55469;48.934;12.050;2023-04-06T01:14:56;4.00;;;2.78;;
68479;SDS011;55469;48.934;12.050;2023-04-06T01:17:22;5.40;;;3.05;;
68479;SDS011;55469;48.934;12.050;2023-04-06T01:19:47;4.78;;;2.70;;
68479;SDS011;55469;48.934;12.050;2023-04-06T01:22:17;4.15;;;2.95;;
68479;SDS011;55469;48.934;12.050;2023-04-06T01:24:43;3.50;;;2.70;;
68479;SDS011;55469;48.934;12.050;2023-04-06T01:27:12;4.85;;;2.72;;
68479;SDS011;55469;48.934;12.050;2023-04-06T01:29:39;3.78;;;2.65;;
68479;SDS011;55469;48.934;12.050;2023-04-06T01:32:08;3.42;;;2.50;;
68479;SDS011;55469;48.934;12.050;2023-04-06T01:34:33;3.03;;;2.65;;
68479;SDS011;55469;48.934;12.050;2023-04-06T01:36:59;4.18;;;2.83;;
68479;SDS011;55469;48.934;12.050;2023-04-06T01:39:25;4.00;;;2.58;;
68479;SDS011;55469;48.934;12.050;2023-04-06T01:41:51;3.42;;;2.65;;
68479;SDS011;55469;48.934;12.050;2023-04-06T01:44:17;3.55;;;2.70;;
68479;SDS011;55469;48.934;12.050;2023-04-06T01:46:43;3.30;;;2.63;;
68479;SDS011;55469;48.934;12.050;2023-04-06T01:49:10;4.75;;;2.65;;
68479;SDS011;55469;48.934;12.050;2023-04-06T01:51:36;3.80;;;2.50;;
68479;SDS011;55469;48.934;12.050;2023-04-06T01:54:01;4.40;;;2.88;;
68479;SDS011;55469;48.934;12.050;2023-04-06T01:56:27;4.00;;;2.58;;
68479;SDS011;55469;48.934;12.050;2023-04-06T01:58:53;3.75;;;2.55;;
68479;SDS011;55469;48.934;12.050;2023-04-06T02:01:19;4.65;;;2.78;;
68479;SDS011;55469;48.934;12.050;2023-04-06T02:03:45;2.85;;;2.47;;
68479;SDS011;55469;48.934;12.050;2023-04-06T02:06:11;4.55;;;2.70;;
68479;SDS011;55469;48.934;12.050;2023-04-06T02:08:36;2.85;;;2.35;;
68479;SDS011;55469;48.934;12.050;2023-04-06T02:11:02;3.20;;;2.63;;
68479;SDS011;55469;48.934;12.050;2023-04-06T02:13:28;4.85;;;2.92;;
68479;SDS011;55469;48.934;12.050;2023-04-06T02:15:54;4.30;;;3.13;;
68479;SDS011;55469;48.934;12.050;2023-04-06T02:18:20;5.70;;;2.70;;
68479;SDS011;55469;48.934;12.050;2023-04-06T02:20:46;3.75;;;2.50;;
68479;SDS011;55469;48.934;12.050;2023-04-06T02:23:12;3.90;;;2.63;;
68479;SDS011;55469;48.934;12.050;2023-04-06T02:25:37;3.72;;;2.70;;
68479;SDS011;55469;48.934;12.050;2023-04-06T02:28:03;3.92;;;2.67;;
68479;SDS011;55469;48.934;12.050;2023-04-06T02:30:29;3.50;;;2.70;;
68479;SDS011;55469;48.934;12.050;2023-04-06T02:32:56;4.25;;;2.90;;
68479;SDS011;55469;48.934;12.050;2023-04-06T02:35:24;4.13;;;2.80;;
68479;SDS011;55469;48.934;12.050;2023-04-06T02:37:50;4.45;;;2.92;;
68479;SDS011;55469;48.934;12.050;2023-04-06T02:40:16;3.20;;;2.60;;
68479;SDS011;55469;48.934;12.050;2023-04-06T02:42:42;4.13;;;2.85;;
68479;SDS011;55469;48.934;12.050;2023-04-06T02:45:07;3.45;;;2.80;;
68479;SDS011;55469;48.934;12.050;2023-04-06T02:47:33;3.90;;;2.70;;
68479;SDS011;55469;48.934;12.050;2023-04-06T02:50:02;3.97;;;2.85;;
68479;SDS011;55469;48.934;12.050;2023-04-06T02:52:28;4.60;;;2.95;;
68479;SDS011;55469;48.934;12.050;2023-04-06T02:54:53;3.42;;;2.55;;
68479;SDS011;55469;48.934;12.050;2023-04-06T02:57:19;4.03;;;2.90;;
68479;SDS011;55469;48.934;12.050;2023-04-06T02:59:45;3.95;;;2.60;;
68479;SDS011;55469;48.934;12.050;2023-04-06T03:02:11;5.07;;;3.05;;
68479;SDS011;55469;48.934;12.050;2023-04-06T03:04:36;3.58;;;2.42;;
68479;SDS011;55469;48.934;12.050;2023-04-06T03:07:02;5.47;;;2.97;;
68479;SDS011;55469;48.934;12.050;2023-04-06T03:09:28;4.28;;;2.75;;
68479;SDS011;55469;48.934;12.050;2023-04-06T03:11:53;4.53;;;2.60;;
68479;SDS011;55469;48.934;12.050;2023-04-06T03:14:20;4.00;;;2.60;;
68479;SDS011;55469;48.934;12.050;2023-04-06T03:16:47;2.55;;;2.35;;
68479;SDS011;55469;48.934;12.050;2023-04-06T03:19:14;4.40;;;2.85;;
68479;SDS011;55469;48.934;12.050;2023-04-06T03:21:40;3.63;;;2.60;;
68479;SDS011;55469;48.934;12.050;2023-04-06T03:24:06;3.97;;;2.80;;
68479;SDS011;55469;48.934;12.050;2023-04-06T03:26:32;4.30;;;2.70;;
68479;SDS011;55469;48.934;12.050;2023-04-06T03:28:58;3.80;;;2.65;;
68479;SDS011;55469;48.934;12.050;2023-04-06T03:31:25;4.32;;;2.85;;
68479;SDS011;55469;48.934;12.050;2023-04-06T03:33:51;3.00;;;2.70;;
68479;SDS011;55469;48.934;12.050;2023-04-06T03:36:17;3.47;;;2.60;;
68479;SDS011;55469;48.934;12.050;2023-04-06T03:38:43;5.57;;;2.75;;
68479;SDS011;55469;48.934;12.050;2023-04-06T03:41:09;5.25;;;3.20;;
68479;SDS011;55469;48.934;12.050;2023-04-06T03:43:35;3.90;;;3.08;;
68479;SDS011;55469;48.934;12.050;2023-04-06T03:46:01;3.75;;;2.70;;
68479;SDS011;55469;48.934;12.050;2023-04-06T03:48:26;4.03;;;2.60;;
68479;SDS011;55469;48.934;12.050;2023-04-06T03:50:52;4.90;;;2.88;;
68479;SDS011;55469;48.934;12.050;2023-04-06T03:53:18;3.50;;;2.72;;
68479;SDS011;55469;48.934;12.050;2023-04-06T03:55:43;3.53;;;2.70;;
68479;SDS011;55469;48.934;12.050;2023-04-06T03:58:09;3.40;;;2.75;;
68479;SDS011;55469;48.934;12.050;2023-04-06T04:00:35;3.30;;;2.50;;
68479;SDS011;55469;48.934;12.050;2023-04-06T04:03:01;3.90;;;2.83;;
68479;SDS011;55469;48.934;12.050;2023-04-06T04:05:27;3.38;;;2.60;;
68479;SDS011;55469;48.934;12.050;2023-04-06T04:07:53;3.30;;;2.55;;
68479;SDS011;55469;48.934;12.050;2023-04-06T04:10:19;4.22;;;2.85;;
68479;SDS011;55469;48.934;12.050;2023-04-06T04:12:45;3.70;;;2.90;;
68479;SDS011;55469;48.934;12.050;2023-04-06T04:15:10;4.03;;;2.92;;
68479;SDS011;55469;48.934;12.050;2023-04-06T04:17:36;3.75;;;2.60;;
68479;SDS011;55469;48.934;12.050;2023-04-06T04:20:02;3.50;;;2.42;;
68479;SDS011;55469;48.934;12.050;2023-04-06T04:22:28;4.03;;;2.60;;
68479;SDS011;55469;48.934;12.050;2023-04-06T04:24:53;3.28;;;2.50;;
68479;SDS011;55469;48.934;12.050;2023-04-06T04:27:19;3.08;;;2.58;;
68479;SDS011;55469;48.934;12.050;2023-04-06T04:29:45;3.80;;;2.78;;
68479;SDS011;55469;48.934;12.050;2023-04-06T04:32:11;4.28;;;2.88;;
68479;SDS011;55469;48.934;12.050;2023-04-06T04:34:37;3.75;;;2.58;;
68479;SDS011;55469;48.934;12.050;2023-04-06T04:37:05;4.90;;;3.00;;
68479;SDS011;55469;48.934;12.050;2023-04-06T04:39:31;3.95;;;2.67;;
68479;SDS011;55469;48.934;12.050;2023-04-06T04:41:57;4.13;;;2.60;;
68479;SDS011;55469;48.934;12.050;2023-04-06T04:44:23;3.90;;;2.63;;
68479;SDS011;55469;48.934;12.050;2023-04-06T04:46:49;5.20;;;2.88;;
68479;SDS011;55469;48.934;12.050;2023-04-06T04:49:15;4.68;;;2.80;;
68479;SDS011;55469;48.934;12.050;2023-04-06T04:51:40;6.28;;;2.75;;
68479;SDS011;55469;48.934;12.050;2023-04-06T04:54:06;3.97;;;2.78;;
68479;SDS011;55469;48.934;12.050;2023-04-06T04:56:32;3.78;;;2.70;;
68479;SDS011;55469;48.934;12.050;2023-04-06T04:58:58;4.10;;;2.63;;
68479;SDS011;55469;48.934;12.050;2023-04-06T05:01:23;3.58;;;2.80;;
68479;SDS011;55469;48.934;12.050;2023-04-06T05:03:49;3.10;;;2.40;;
68479;SDS011;55469;48.934;12.050;2023-04-06T05:06:15;3.35;;;2.70;;
68479;SDS011;55469;48.934;12.050;2023-04-06T05:08:41;3.15;;;2.50;;
68479;SDS011;55469;48.934;12.050;2023-04-06T05:11:08;4.70;;;2.70;;
68479;SDS011;55469;48.934;12.050;2023-04-06T05:13:34;5.10;;;2.97;;
68479;SDS011;55469;48.934;12.050;2023-04-06T05:16:00;3.45;;;2.67;;
68479;SDS011;55469;48.934;12.050;2023-04-06T05:18:26;3.85;;;2.60;;
68479;SDS011;55469;48.934;12.050;2023-04-06T05:20:51;3.97;;;2.65;;
68479;SDS011;55469;48.934;12.050;2023-04-06T05:23:17;4.60;;;2.90;;
68479;SDS011;55469;48.934;12.050;2023-04-06T05:25:43;3.85;;;2.60;;
68479;SDS011;55469;48.934;12.050;2023-04-06T05:28:09;3.10;;;2.40;;
68479;SDS011;55469;48.934;12.050;2023-04-06T05:30:35;3.22;;;2.45;;
68479;SDS011;55469;48.934;12.050;2023-04-06T05:33:01;4.07;;;3.00;;
68479;SDS011;55469;48.934;12.050;2023-04-06T05:35:27;4.40;;;2.75;;
68479;SDS011;55469;48.934;12.050;2023-04-06T05:37:52;4.72;;;2.80;;
68479;SDS011;55469;48.934;12.050;2023-04-06T05:40:18;3.55;;;2.60;;
68479;SDS011;55469;48.934;12.050;2023-04-06T05:42:44;3.50;;;2.88;;
68479;SDS011;55469;48.934;12.050;2023-04-06T05:45:10;4.05;;;2.55;;
68479;SDS011;55469;48.934;12.050;2023-04-06T05:47:41;3.47;;;2.72;;
68479;SDS011;55469;48.934;12.050;2023-04-06T05:50:09;3.65;;;2.78;;
68479;SDS011;55469;48.934;12.050;2023-04-06T05:52:36;3.38;;;2.45;;
68479;SDS011;55469;48.934;12.050;2023-04-06T05:55:02;4.40;;;2.80;;
68479;SDS011;55469;48.934;12.050;2023-04-06T05:57:28;4.50;;;2.58;;
68479;SDS011;55469;48.934;12.050;2023-04-06T05:59:54;3.90;;;2.70;;
68479;SDS011;55469;48.934;12.050;2023-04-06T06:02:20;3.75;;;2.70;;
68479;SDS011;55469;48.934;12.050;2023-04-06T06:04:46;4.50;;;3.00;;
68479;SDS011;55469;48.934;12.050;2023-04-06T06:07:13;4.10;;;2.97;;
68479;SDS011;55469;48.934;12.050;2023-04-06T06:09:40;4.22;;;2.92;;
68479;SDS011;55469;48.934;12.050;2023-04-06T06:12:06;4.13;;;3.10;;
68479;SDS011;55469;48.934;12.050;2023-04-06T06:14:32;4.00;;;2.85;;
68479;SDS011;55469;48.934;12.050;2023-04-06T06:16:58;4.68;;;2.53;;
68479;SDS011;55469;48.934;12.050;2023-04-06T06:19:23;3.88;;;2.88;;
68479;SDS011;55469;48.934;12.050;2023-04-06T06:21:49;3.90;;;2.63;;
68479;SDS011;55469;48.934;12.050;2023-04-06T06:24:15;3.90;;;2.83;;
68479;SDS011;55469;48.934;12.050;2023-04-06T06:26:41;3.05;;;2.60;;
68479;SDS011;55469;48.934;12.050;2023-04-06T06:29:07;3.67;;;2.72;;
68479;SDS011;55469;48.934;12.050;2023-04-06T06:31:32;4.15;;;2.90;;
68479;SDS011;55469;48.934;12.050;2023-04-06T06:33:58;3.55;;;2.65;;
68479;SDS011;55469;48.934;12.050;2023-04-06T06:36:25;4.32;;;2.88;;
68479;SDS011;55469;48.934;12.050;2023-04-06T06:38:51;4.07;;;2.90;;
68479;SDS011;55469;48.934;12.050;2023-04-06T06:41:17;4.78;;;2.70;;
68479;SDS011;55469;48.934;12.050;2023-04-06T06:43:43;3.60;;;2.80;;
68479;SDS011;55469;48.934;12.050;2023-04-06T06:46:10;3.33;;;2.42;;
68479;SDS011;55469;48.934;12.050;2023-04-06T06:48:36;3.38;;;2.45;;
68479;SDS011;55469;48.934;12.050;2023-04-06T06:51:02;3.92;;;2.78;;
68479;SDS011;55469;48.934;12.050;2023-04-06T06:53:28;3.42;;;2.70;;
68479;SDS011;55469;48.934;12.050;2023-04-06T06:55:53;4.10;;;2.65;;
68479;SDS011;55469;48.934;12.050;2023-04-06T06:58:19;3.58;;;2.55;;
68479;SDS011;55469;48.934;12.050;2023-04-06T07:00:45;3.28;;;2.40;;
68479;SDS011;55469;48.934;12.050;2023-04-06T07:03:11;3.70;;;2.80;;
68479;SDS011;55469;48.934;12.050;2023-04-06T07:05:37;4.40;;;2.67;;
68479;SDS011;55469;48.934;12.050;2023-04-06T07:08:03;3.92;;;2.60;;
68479;SDS011;55469;48.934;12.050;2023-04-06T07:10:29;3.47;;;2.47;;
68479;SDS011;55469;48.934;12.050;2023-04-06T07:12:55;3.88;;;2.60;;
68479;SDS011;55469;48.934;12.050;2023-04-06T07:15:21;5.05;;;2.83;;
68479;SDS011;55469;48.934;12.050;2023-04-06T07:17:47;3.28;;;2.65;;
68479;SDS011;55469;48.934;12.050;2023-04-06T07:20:13;2.75;;;2.45;;
68479;SDS011;55469;48.934;12.050;2023-04-06T07:22:40;3.65;;;2.30;;
68479;SDS011;55469;48.934;12.050;2023-04-06T07:25:09;2.63;;;2.42;;
68479;SDS011;55469;48.934;12.050;2023-04-06T07:27:35;3.17;;;2.42;;
68479;SDS011;55469;48.934;12.050;2023-04-06T07:30:01;3.05;;;2.50;;
68479;SDS011;55469;48.934;12.050;2023-04-06T07:32:27;3.47;;;2.38;;
68479;SDS011;55469;48.934;12.050;2023-04-06T07:34:53;3.78;;;2.40;;
68479;SDS011;55469;48.934;12.050;2023-04-06T07:37:19;3.22;;;2.55;;
68479;SDS011;55469;48.934;12.050;2023-04-06T07:39:45;4.35;;;2.50;;
68479;SDS011;55469;48.934;12.050;2023-04-06T07:42:11;3.50;;;2.47;;
68479;SDS011;55469;48.934;12.050;2023-04-06T07:44:39;3.20;;;2.40;;
68479;SDS011;55469;48.934;12.050;2023-04-06T07:47:04;3.17;;;2.60;;
68479;SDS011;55469;48.934;12.050;2023-04-06T07:49:30;3.75;;;2.35;;
68479;SDS011;55469;48.934;12.050;2023-04-06T07:51:57;3.13;;;2.40;;
68479;SDS011;55469;48.934;12.050;2023-04-06T07:54:23;3.20;;;2.38;;
68479;SDS011;55469;48.934;12.050;2023-04-06T07:56:49;4.25;;;2.70;;
68479;SDS011;55469;48.934;12.050;2023-04-06T07:59:15;4.95;;;3.15;;
68479;SDS011;55469;48.934;12.050;2023-04-06T08:01:40;4.50;;;3.28;;
68479;SDS011;55469;48.934;12.050;2023-04-06T08:04:06;3.50;;;2.45;;
68479;SDS011;55469;48.934;12.050;2023-04-06T08:06:32;3.10;;;2.15;;
68479;SDS011;55469;48.934;12.050;2023-04-06T08:08:59;4.00;;;2.50;;
68479;SDS011;55469;48.934;12.050;2023-04-06T08:11:24;3.55;;;2.10;;
68479;SDS011;55469;48.934;12.050;2023-04-06T08:13:51;3.00;;;2.25;;
68479;SDS011;55469;48.934;12.050;2023-04-06T08:16:17;3.08;;;2.40;;
68479;SDS011;55469;48.934;12.050;2023-04-06T08:18:44;3.45;;;2.53;;
68479;SDS011;55469;48.934;12.050;2023-04-06T08:21:09;3.47;;;2.30;;
68479;SDS011;55469;48.934;12.050;2023-04-06T08:23:35;3.35;;;2.70;;
68479;SDS011;55469;48.934;12.050;2023-04-06T08:26:01;2.83;;;2.25;;
68479;SDS011;55469;48.934;12.050;2023-04-06T08:28:27;4.00;;;2.50;;
68479;SDS011;55469;48.934;12.050;2023-04-06T08:30:53;3.33;;;2.50;;
68479;SDS011;55469;48.934;12.050;2023-04-06T08:33:19;3.05;;;2.13;;
68479;SDS011;55469;48.934;12.050;2023-04-06T08:35:45;3.63;;;2.67;;
68479;SDS011;55469;48.934;12.050;2023-04-06T08:38:11;3.60;;;2.33;;
68479;SDS011;55469;48.934;12.050;2023-04-06T08:40:40;3.42;;;2.17;;
68479;SDS011;55469;48.934;12.050;2023-04-06T08:43:06;2.67;;;1.92;;
68479;SDS011;55469;48.934;12.050;2023-04-06T08:45:38;3.25;;;2.45;;
68479;SDS011;55469;48.934;12.050;2023-04-06T08:48:06;4.13;;;2.60;;
68479;SDS011;55469;48.934;12.050;2023-04-06T08:50:35;3.10;;;2.47;;
68479;SDS011;55469;48.934;12.050;2023-04-06T08:53:01;3.15;;;2.10;;
68479;SDS011;55469;48.934;12.050;2023-04-06T08:55:27;3.13;;;2.25;;
68479;SDS011;55469;48.934;12.050;2023-04-06T08:57:53;3.05;;;2.13;;
68479;SDS011;55469;48.934;12.050;2023-04-06T09:00:20;3.22;;;2.45;;
68479;SDS011;55469;48.934;12.050;2023-04-06T09:02:46;3.28;;;2.25;;
68479;SDS011;55469;48.934;12.050;2023-04-06T09:05:14;2.78;;;2.10;;
68479;SDS011;55469;48.934;12.050;2023-04-06T09:07:40;2.63;;;2.25;;
68479;SDS011;55469;48.934;12.050;2023-04-06T09:10:06;3.75;;;2.20;;
68479;SDS011;55469;48.934;12.050;2023-04-06T09:12:33;3.15;;;2.33;;
68479;SDS011;55469;48.934;12.050;2023-04-06T09:15:00;3.08;;;2.03;;
68479;SDS011;55469;48.934;12.050;2023-04-06T09:17:28;2.45;;;2.15;;
68479;SDS011;55469;48.934;12.050;2023-04-06T09:19:55;2.58;;;2.28;;
68479;SDS011;55469;48.934;12.050;2023-04-06T09:22:21;2.70;;;2.20;;
68479;SDS011;55469;48.934;12.050;2023-04-06T09:24:50;3.17;;;2.00;;
68479;SDS011;55469;48.934;12.050;2023-04-06T09:27:17;2.88;;;2.38;;
68479;SDS011;55469;48.934;12.050;2023-04-06T09:30:29;2.80;;;1.90;;
68479;SDS011;55469;48.934;12.050;2023-04-06T09:32:50;3.55;;;2.15;;
68479;SDS011;55469;48.934;12.050;2023-04-06T09:35:18;3.33;;;2.22;;
68479;SDS011;55469;48.934;12.050;2023-04-06T09:37:45;4.45;;;2.38;;
68479;SDS011;55469;48.934;12.050;2023-04-06T09:40:13;17.70;;;3.10;;
68479;SDS011;55469;48.934;12.050;2023-04-06T09:42:42;7.55;;;2.47;;
68479;SDS011;55469;48.934;12.050;2023-04-06T09:45:11;9.95;;;3.10;;
68479;SDS011;55469;48.934;12.050;2023-04-06T09:47:37;15.13;;;3.17;;
68479;SDS011;55469;48.934;12.050;2023-04-06T09:50:05;14.85;;;2.83;;
68479;SDS011;55469;48.934;12.050;2023-04-06T09:52:37;10.90;;;3.20;;
68479;SDS011;55469;48.934;12.050;2023-04-06T09:55:40;13.15;;;3.53;;
68479;SDS011;55469;48.934;12.050;2023-04-06T09:58:12;6.47;;;2.90;;
68479;SDS011;55469;48.934;12.050;2023-04-06T10:00:45;16.85;;;3.58;;
68479;SDS011;55469;48.934;12.050;2023-04-06T10:03:45;10.23;;;3.30;;
68479;SDS011;55469;48.934;12.050;2023-04-06T10:06:24;7.82;;;2.88;;
68479;SDS011;55469;48.934;12.050;2023-04-06T10:08:54;9.40;;;3.13;;
68479;SDS011;55469;48.934;12.050;2023-04-06T10:11:22;13.05;;;3.53;;
68479;SDS011;55469;48.934;12.050;2023-04-06T10:13:48;15.18;;;3.40;;
68479;SDS011;55469;48.934;12.050;2023-04-06T10:16:16;11.13;;;3.10;;
68479;SDS011;55469;48.934;12.050;2023-04-06T10:18:45;13.55;;;2.92;;
68479;SDS011;55469;48.934;12.050;2023-04-06T10:21:16;20.00;;;3.58;;
68479;SDS011;55469;48.934;12.050;2023-04-06T10:23:51;14.38;;;2.42;;
68479;SDS011;55469;48.934;12.050;2023-04-06T10:26:19;15.48;;;2.72;;
68479;SDS011;55469;48.934;12.050;2023-04-06T10:28:47;11.50;;;2.85;;
68479;SDS011;55469;48.934;12.050;2023-04-06T10:31:23;14.02;;;2.92;;
68479;SDS011;55469;48.934;12.050;2023-04-06T10:33:56;10.90;;;2.65;;
68479;SDS011;55469;48.934;12.050;2023-04-06T10:36:26;9.30;;;2.47;;
68479;SDS011;55469;48.934;12.050;2023-04-06T10:39:03;8.80;;;2.40;;
68479;SDS011;55469;48.934;12.050;2023-04-06T10:41:34;8.93;;;2.47;;
68479;SDS011;55469;48.934;12.050;2023-04-06T10:44:17;10.10;;;2.42;;
68479;SDS011;55469;48.934;12.050;2023-04-06T10:46:53;8.23;;;3.20;;
68479;SDS011;55469;48.934;12.050;2023-04-06T10:49:22;4.50;;;3.20;;
68479;SDS011;55469;48.934;12.050;2023-04-06T10:51:53;6.05;;;2.42;;
68479;SDS011;55469;48.934;12.050;2023-04-06T10:54:24;5.78;;;2.67;;
68479;SDS011;55469;48.934;12.050;2023-04-06T10:56:51;7.43;;;3.00;;
68479;SDS011;55469;48.934;12.050;2023-04-06T10:59:20;6.35;;;3.17;;
68479;SDS011;55469;48.934;12.050;2023-04-06T11:01:47;6.25;;;2.40;;
68479;SDS011;55469;48.934;12.050;2023-04-06T11:04:15;4.47;;;2.70;;
68479;SDS011;55469;48.934;12.050;2023-04-06T11:06:46;4.90;;;2.55;;
68479;SDS011;55469;48.934;12.050;2023-04-06T11:09:23;3.58;;;2.55;;
68479;SDS011;55469;48.934;12.050;2023-04-06T11:11:52;5.45;;;2.70;;
68479;SDS011;55469;48.934;12.050;2023-04-06T11:14:19;5.30;;;2.60;;
68479;SDS011;55469;48.934;12.050;2023-04-06T11:16:46;3.80;;;2.08;;
68479;SDS011;55469;48.934;12.050;2023-04-06T11:19:13;5.10;;;2.40;;
68479;SDS011;55469;48.934;12.050;2023-04-06T11:21:43;3.97;;;2.30;;
68479;SDS011;55469;48.934;12.050;2023-04-06T11:24:17;6.05;;;3.03;;
68479;SDS011;55469;48.934;12.050;2023-04-06T11:26:56;7.03;;;2.83;;
68479;SDS011;55469;48.934;12.050;2023-04-06T11:29:25;5.20;;;3.38;;
68479;SDS011;55469;48.934;12.050;2023-04-06T11:32:00;4.07;;;3.17;;
68479;SDS011;55469;48.934;12.050;2023-04-06T11:34:29;5.20;;;3.03;;
68479;SDS011;55469;48.934;12.050;2023-04-06T11:36:58;3.00;;;2.40;;
68479;SDS011;55469;48.934;12.050;2023-04-06T11:39:37;2.63;;;2.30;;
68479;SDS011;55469;48.934;12.050;2023-04-06T11:42:05;3.38;;;2.33;;
68479;SDS011;55469;48.934;12.050;2023-04-06T11:46:58;3.55;;;2.65;;
68479;SDS011;55469;48.934;12.050;2023-04-06T11:49:28;5.75;;;4.57;;
68479;SDS011;55469;48.934;12.050;2023-04-06T11:51:56;3.88;;;2.47;;
68479;SDS011;55469;48.934;12.050;2023-04-06T11:54:34;3.50;;;2.47;;
68479;SDS011;55469;48.934;12.050;2023-04-06T11:57:02;5.78;;;2.85;;
68479;SDS011;55469;48.934;12.050;2023-04-06T11:59:30;5.55;;;2.70;;
68479;SDS011;55469;48.934;12.050;2023-04-06T12:01:56;8.55;;;3.33;;
68479;SDS011;55469;48.934;12.050;2023-04-06T12:04:23;9.50;;;3.00;;
68479;SDS011;55469;48.934;12.050;2023-04-06T12:06:49;7.63;;;4.47;;
68479;SDS011;55469;48.934;12.050;2023-04-06T12:09:15;12.43;;;5.03;;
68479;SDS011;55469;48.934;12.050;2023-04-06T12:11:44;6.13;;;3.83;;
68479;SDS011;55469;48.934;12.050;2023-04-06T12:14:10;5.35;;;3.40;;
68479;SDS011;55469;48.934;12.050;2023-04-06T12:16:37;11.30;;;3.28;;
68479;SDS011;55469;48.934;12.050;2023-04-06T12:19:03;7.80;;;3.00;;
68479;SDS011;55469;48.934;12.050;2023-04-06T12:21:31;10.10;;;3.10;;
68479;SDS011;55469;48.934;12.050;2023-04-06T12:24:01;15.13;;;3.03;;
68479;SDS011;55469;48.934;12.050;2023-04-06T12:26:27;15.63;;;3.53;;
68479;SDS011;55469;48.934;12.050;2023-04-06T12:28:54;11.95;;;2.50;;
68479;SDS011;55469;48.934;12.050;2023-04-06T12:31:20;7.82;;;2.38;;
68479;SDS011;55469;48.934;12.050;2023-04-06T12:33:48;9.45;;;2.80;;
68479;SDS011;55469;48.934;12.050;2023-04-06T12:36:19;13.10;;;3.25;;
68479;SDS011;55469;48.934;12.050;2023-04-06T12:38:49;11.55;;;2.60;;
68479;SDS011;55469;48.934;12.050;2023-04-06T12:41:16;6.30;;;2.17;;
68479;SDS011;55469;48.934;12.050;2023-04-06T12:43:42;10.73;;;2.33;;
68479;SDS011;55469;48.934;12.050;2023-04-06T12:46:09;10.30;;;2.28;;
68479;SDS011;55469;48.934;12.050;2023-04-06T12:48:35;8.25;;;2.45;;
68479;SDS011;55469;48.934;12.050;2023-04-06T12:51:02;12.20;;;2.10;;
68479;SDS011;55469;48.934;12.050;2023-04-06T12:53:30;12.93;;;2.35;;
68479;SDS011;55469;48.934;12.050;2023-04-06T12:55:56;11.77;;;2.50;;
68479;SDS011;55469;48.934;12.050;2023-04-06T12:58:23;7.05;;;2.20;;
68479;SDS011;55469;48.934;12.050;2023-04-06T13:00:51;5.57;;;2.10;;
68479;SDS011;55469;48.934;12.050;2023-04-06T13:03:20;8.35;;;2.38;;
68479;SDS011;55469;48.934;12.050;2023-04-06T13:05:47;8.80;;;2.08;;
68479;SDS011;55469;48.934;12.050;2023-04-06T13:08:15;6.55;;;2.15;;
68479;SDS011;55469;48.934;12.050;2023-04-06T13:10:47;4.70;;;2.03;;
68479;SDS011;55469;48.934;12.050;2023-04-06T13:13:15;5.05;;;2.08;;
68479;SDS011;55469;48.934;12.050;2023-04-06T13:15:42;4.38;;;1.90;;
68479;SDS011;55469;48.934;12.050;2023-04-06T13:18:08;4.43;;;2.45;;
68479;SDS011;55469;48.934;12.050;2023-04-06T13:20:34;5.13;;;2.00;;
68479;SDS011;55469;48.934;12.050;2023-04-06T13:23:00;5.57;;;2.00;;
68479;SDS011;55469;48.934;12.050;2023-04-06T13:25:26;6.68;;;1.90;;
68479;SDS011;55469;48.934;12.050;2023-04-06T13:27:53;5.50;;;2.17;;
68479;SDS011;55469;48.934;12.050;2023-04-06T13:30:19;11.20;;;2.05;;
68479;SDS011;55469;48.934;12.050;2023-04-06T13:32:45;6.75;;;2.03;;
68479;SDS011;55469;48.934;12.050;2023-04-06T13:35:11;21.98;;;2.30;;
68479;SDS011;55469;48.934;12.050;2023-04-06T13:37:38;13.27;;;2.58;;
68479;SDS011;55469;48.934;12.050;2023-04-06T13:40:04;20.88;;;2.97;;
68479;SDS011;55469;48.934;12.050;2023-04-06T13:42:31;17.02;;;4.55;;
68479;SDS011;55469;48.934;12.050;2023-04-06T13:44:57;17.08;;;5.00;;
68479;SDS011;55469;48.934;12.050;2023-04-06T13:47:24;21.48;;;3.97;;
68479;SDS011;55469;48.934;12.050;2023-04-06T13:49:50;21.17;;;4.82;;
68479;SDS011;55469;48.934;12.050;2023-04-06T13:52:20;19.92;;;3.92;;
68479;SDS011;55469;48.934;12.050;2023-04-06T13:54:45;12.45;;;3.55;;
68479;SDS011;55469;48.934;12.050;2023-04-06T13:57:11;15.60;;;3.38;;
68479;SDS011;55469;48.934;12.050;2023-04-06T13:59:37;10.95;;;3.60;;
68479;SDS011;55469;48.934;12.050;2023-04-06T14:02:04;15.35;;;3.55;;
68479;SDS011;55469;48.934;12.050;2023-04-06T14:04:32;11.05;;;3.10;;
68479;SDS011;55469;48.934;12.050;2023-04-06T14:06:59;17.27;;;3.15;;
68479;SDS011;55469;48.934;12.050;2023-04-06T14:09:26;7.47;;;3.35;;
68479;SDS011;55469;48.934;12.050;2023-04-06T14:11:52;17.98;;;2.95;;
68479;SDS011;55469;48.934;12.050;2023-04-06T14:14:18;11.23;;;3.20;;
68479;SDS011;55469;48.934;12.050;2023-04-06T14:16:44;9.27;;;2.92;;
68479;SDS011;55469;48.934;12.050;2023-04-06T14:19:11;8.65;;;2.60;;
68479;SDS011;55469;48.934;12.050;2023-04-06T14:21:40;8.65;;;2.80;;
68479;SDS011;55469;48.934;12.050;2023-04-06T14:24:08;9.93;;;2.78;;
68479;SDS011;55469;48.934;12.050;2023-04-06T14:26:37;7.57;;;2.97;;
68479;SDS011;55469;48.934;12.050;2023-04-06T14:29:04;7.88;;;2.47;;
68479;SDS011;55469;48.934;12.050;2023-04-06T14:31:30;6.90;;;2.40;;
68479;SDS011;55469;48.934;12.050;2023-04-06T14:33:57;6.93;;;2.30;;
68479;SDS011;55469;48.934;12.050;2023-04-06T14:36:26;6.50;;;2.38;;